KMSP/MSP METAR and TAF weather

Enter ICAO airport designator
Station Type Date Time Source
KMSP METAR 2020/08/05 15:53 UTC NOAA

KMSP 051553Z 20009KT 10SM FEW100 FEW150 SCT250 23/11 A3007 RMK AO2 SLP178 T02330106


Station Type Date Time Source
KMSP Decoded METAR 2020/08/05 15:53 UTC NOAA

MINNEAPOLIS-ST PAUL INTERNATIONAL , MN, United States (KMSP) 44-52N 93-13W 265M
Aug 05, 2020 - 11:53 AM EDT / 2020.08.05 1553 UTC
Wind: from the SSW (200 degrees) at 10 MPH (9 KT):0
Visibility: 10 mile(s):0
Sky conditions: partly cloudy
Temperature: 73.9 F (23.3 C)
Dew Point: 51.1 F (10.6 C)
Relative Humidity: 44%
Pressure (altimeter): 30.07 in. Hg (1018 hPa)
ob: KMSP 051553Z 20009KT 10SM FEW100 FEW150 SCT250 23/11 A3007 RMK AO2 SLP178 T02330106
cycle: 16

Station Type Date Time Source
KMSP TAF 2020/08/05 15:58 UTC NOAA

TAF
AMD KMSP 051457Z 0515/0618 22007KT P6SM FEW250
FM051700 19008KT P6SM SCT060 BKN200
FM060400 16008KT P6SM OVC060

Example: see airport list